sensor_id;sensor_type;location;lat;lon;timestamp;pressure;altitude;pressure_sealevel;temperature;humidity
72308;BME280;60257;42.638;23.376;2022-07-12T00:02:10;95035.50;;;13.43;59.67
72308;BME280;60257;42.638;23.376;2022-07-12T00:04:36;95030.06;;;13.28;60.11
72308;BME280;60257;42.638;23.376;2022-07-12T00:07:02;95037.13;;;13.29;60.56
72308;BME280;60257;42.638;23.376;2022-07-12T00:09:27;95043.84;;;13.31;60.24
72308;BME280;60257;42.638;23.376;2022-07-12T00:11:52;95037.63;;;13.34;59.80
72308;BME280;60257;42.638;23.376;2022-07-12T00:14:18;95044.19;;;13.30;59.99
72308;BME280;60257;42.638;23.376;2022-07-12T00:16:43;95048.88;;;13.29;59.95
72308;BME280;60257;42.638;23.376;2022-07-12T00:19:09;95044.47;;;13.25;60.02
72308;BME280;60257;42.638;23.376;2022-07-12T00:21:34;95041.94;;;13.16;60.56
72308;BME280;60257;42.638;23.376;2022-07-12T00:24:00;95037.97;;;13.14;60.23
72308;BME280;60257;42.638;23.376;2022-07-12T00:26:25;95043.78;;;13.12;61.04
72308;BME280;60257;42.638;23.376;2022-07-12T00:28:51;95036.44;;;13.16;60.78
72308;BME280;60257;42.638;23.376;2022-07-12T00:31:17;95039.63;;;13.18;60.44
72308;BME280;60257;42.638;23.376;2022-07-12T00:33:43;95046.88;;;13.26;60.29
72308;BME280;60257;42.638;23.376;2022-07-12T00:36:09;95041.13;;;13.16;60.77
72308;BME280;60257;42.638;23.376;2022-07-12T00:38:34;95037.81;;;13.10;60.59
72308;BME280;60257;42.638;23.376;2022-07-12T00:41:00;95038.53;;;13.07;60.91
72308;BME280;60257;42.638;23.376;2022-07-12T00:43:26;95047.69;;;13.11;61.58
72308;BME280;60257;42.638;23.376;2022-07-12T00:45:52;95032.34;;;13.10;60.69
72308;BME280;60257;42.638;23.376;2022-07-12T00:48:18;95032.19;;;13.03;61.03
72308;BME280;60257;42.638;23.376;2022-07-12T00:50:45;95028.66;;;13.02;61.48
72308;BME280;60257;42.638;23.376;2022-07-12T00:53:12;95031.03;;;13.04;61.32
72308;BME280;60257;42.638;23.376;2022-07-12T00:55:38;95033.78;;;13.04;61.27
72308;BME280;60257;42.638;23.376;2022-07-12T00:58:04;95037.94;;;12.98;61.13
72308;BME280;60257;42.638;23.376;2022-07-12T01:00:30;95033.25;;;12.98;62.24
72308;BME280;60257;42.638;23.376;2022-07-12T01:02:57;95033.19;;;12.95;62.25
72308;BME280;60257;42.638;23.376;2022-07-12T01:05:23;95036.69;;;12.95;62.50
72308;BME280;60257;42.638;23.376;2022-07-12T01:07:51;95032.13;;;12.84;62.96
72308;BME280;60257;42.638;23.376;2022-07-12T01:10:16;95028.94;;;12.82;62.95
72308;BME280;60257;42.638;23.376;2022-07-12T01:12:42;95026.19;;;12.82;62.54
72308;BME280;60257;42.638;23.376;2022-07-12T01:15:08;95032.13;;;12.84;62.69
72308;BME280;60257;42.638;23.376;2022-07-12T01:17:35;95033.25;;;12.83;63.26
72308;BME280;60257;42.638;23.376;2022-07-12T01:20:01;95033.06;;;12.76;62.63
72308;BME280;60257;42.638;23.376;2022-07-12T01:22:30;95033.72;;;12.69;62.62
72308;BME280;60257;42.638;23.376;2022-07-12T01:24:56;95028.03;;;12.62;62.81
72308;BME280;60257;42.638;23.376;2022-07-12T01:27:22;95036.72;;;12.64;62.10
72308;BME280;60257;42.638;23.376;2022-07-12T01:29:47;95028.69;;;12.55;62.31
72308;BME280;60257;42.638;23.376;2022-07-12T01:32:13;95034.16;;;12.55;62.93
72308;BME280;60257;42.638;23.376;2022-07-12T01:34:52;95040.41;;;12.56;62.36
72308;BME280;60257;42.638;23.376;2022-07-12T01:37:19;95033.44;;;12.58;62.22
72308;BME280;60257;42.638;23.376;2022-07-12T01:39:47;95022.75;;;12.53;62.69
72308;BME280;60257;42.638;23.376;2022-07-12T01:42:13;95031.69;;;12.50;61.94
72308;BME280;60257;42.638;23.376;2022-07-12T01:44:39;95030.34;;;12.44;62.03
72308;BME280;60257;42.638;23.376;2022-07-12T01:47:05;95027.41;;;12.37;62.91
72308;BME280;60257;42.638;23.376;2022-07-12T01:49:30;95037.22;;;12.38;62.81
72308;BME280;60257;42.638;23.376;2022-07-12T01:51:56;95027.78;;;12.36;62.31
72308;BME280;60257;42.638;23.376;2022-07-12T01:54:24;95023.78;;;12.33;62.40
72308;BME280;60257;42.638;23.376;2022-07-12T01:56:49;95025.66;;;12.45;62.84
72308;BME280;60257;42.638;23.376;2022-07-12T01:59:15;95031.69;;;12.50;62.02
72308;BME280;60257;42.638;23.376;2022-07-12T02:01:41;95027.16;;;12.58;61.72
72308;BME280;60257;42.638;23.376;2022-07-12T02:04:07;95026.88;;;12.47;61.25
72308;BME280;60257;42.638;23.376;2022-07-12T02:06:33;95033.00;;;12.41;61.17
72308;BME280;60257;42.638;23.376;2022-07-12T02:08:59;95036.88;;;12.40;61.48
72308;BME280;60257;42.638;23.376;2022-07-12T02:11:24;95033.09;;;12.44;61.13
72308;BME280;60257;42.638;23.376;2022-07-12T02:13:50;95032.63;;;12.42;60.84
72308;BME280;60257;42.638;23.376;2022-07-12T02:16:16;95033.06;;;12.29;61.09
72308;BME280;60257;42.638;23.376;2022-07-12T02:18:41;95036.69;;;12.33;61.28
72308;BME280;60257;42.638;23.376;2022-07-12T02:21:07;95036.66;;;12.17;61.85
72308;BME280;60257;42.638;23.376;2022-07-12T02:23:33;95035.09;;;12.16;61.55
72308;BME280;60257;42.638;23.376;2022-07-12T02:25:58;95035.34;;;12.27;61.89
72308;BME280;60257;42.638;23.376;2022-07-12T02:28:24;95026.09;;;12.31;61.41
72308;BME280;60257;42.638;23.376;2022-07-12T02:30:49;95028.25;;;12.10;62.06
72308;BME280;60257;42.638;23.376;2022-07-12T02:33:15;95032.72;;;12.02;62.42
72308;BME280;60257;42.638;23.376;2022-07-12T02:35:41;95031.75;;;11.95;62.84
72308;BME280;60257;42.638;23.376;2022-07-12T02:38:07;95034.28;;;11.88;63.04
72308;BME280;60257;42.638;23.376;2022-07-12T02:40:33;95033.53;;;11.75;63.46
72308;BME280;60257;42.638;23.376;2022-07-12T02:43:17;95029.78;;;11.67;63.71
72308;BME280;60257;42.638;23.376;2022-07-12T02:45:42;95025.44;;;11.66;63.85
72308;BME280;60257;42.638;23.376;2022-07-12T02:48:08;95036.97;;;11.60;64.42
72308;BME280;60257;42.638;23.376;2022-07-12T02:50:35;95031.06;;;11.58;64.66
72308;BME280;60257;42.638;23.376;2022-07-12T02:53:01;95031.16;;;11.61;64.56
72308;BME280;60257;42.638;23.376;2022-07-12T02:55:26;95035.50;;;11.62;64.33
72308;BME280;60257;42.638;23.376;2022-07-12T02:57:52;95036.31;;;11.63;64.24
72308;BME280;60257;42.638;23.376;2022-07-12T03:00:17;95043.25;;;11.60;64.51
72308;BME280;60257;42.638;23.376;2022-07-12T03:02:43;95042.13;;;11.61;64.26
72308;BME280;60257;42.638;23.376;2022-07-12T03:05:08;95049.19;;;11.62;64.17
72308;BME280;60257;42.638;23.376;2022-07-12T03:07:34;95050.31;;;11.61;64.92
72308;BME280;60257;42.638;23.376;2022-07-12T03:09:59;95053.50;;;11.63;65.08
72308;BME280;60257;42.638;23.376;2022-07-12T03:12:25;95055.88;;;11.65;65.62
72308;BME280;60257;42.638;23.376;2022-07-12T03:14:50;95055.09;;;11.77;64.89
72308;BME280;60257;42.638;23.376;2022-07-12T03:17:15;95051.91;;;11.75;64.89
72308;BME280;60257;42.638;23.376;2022-07-12T03:19:41;95059.53;;;11.81;64.52
72308;BME280;60257;42.638;23.376;2022-07-12T03:22:06;95063.25;;;11.89;63.78
72308;BME280;60257;42.638;23.376;2022-07-12T03:24:32;95060.63;;;11.92;63.48
72308;BME280;60257;42.638;23.376;2022-07-12T03:26:58;95063.47;;;11.96;63.10
72308;BME280;60257;42.638;23.376;2022-07-12T03:29:23;95066.88;;;11.93;63.69
72308;BME280;60257;42.638;23.376;2022-07-12T03:31:49;95070.97;;;11.99;64.06
72308;BME280;60257;42.638;23.376;2022-07-12T03:34:14;95061.63;;;12.00;63.72
72308;BME280;60257;42.638;23.376;2022-07-12T03:36:39;95068.78;;;12.04;63.51
72308;BME280;60257;42.638;23.376;2022-07-12T03:39:05;95068.53;;;12.09;63.27
72308;BME280;60257;42.638;23.376;2022-07-12T03:41:30;95071.38;;;12.13;63.65
72308;BME280;60257;42.638;23.376;2022-07-12T03:43:56;95070.78;;;12.20;63.08
72308;BME280;60257;42.638;23.376;2022-07-12T03:46:21;95068.63;;;12.13;63.74
72308;BME280;60257;42.638;23.376;2022-07-12T03:48:47;95066.69;;;12.13;63.56
72308;BME280;60257;42.638;23.376;2022-07-12T03:51:12;95072.16;;;12.13;64.19
72308;BME280;60257;42.638;23.376;2022-07-12T03:53:38;95073.84;;;12.18;64.00
72308;BME280;60257;42.638;23.376;2022-07-12T03:56:03;95076.34;;;12.23;64.18
72308;BME280;60257;42.638;23.376;2022-07-12T03:58:29;95085.00;;;12.25;63.81
72308;BME280;60257;42.638;23.376;2022-07-12T04:00:54;95073.34;;;12.28;63.69
72308;BME280;60257;42.638;23.376;2022-07-12T04:03:20;95078.06;;;12.43;63.68
72308;BME280;60257;42.638;23.376;2022-07-12T04:05:45;95071.44;;;12.44;63.53
72308;BME280;60257;42.638;23.376;2022-07-12T04:08:11;95086.28;;;12.43;63.32
72308;BME280;60257;42.638;23.376;2022-07-12T04:10:36;95083.28;;;12.48;62.95
72308;BME280;60257;42.638;23.376;2022-07-12T04:13:02;95092.69;;;12.79;61.74
72308;BME280;60257;42.638;23.376;2022-07-12T04:15:28;95096.69;;;12.66;62.05
72308;BME280;60257;42.638;23.376;2022-07-12T04:17:53;95085.72;;;12.66;62.04
72308;BME280;60257;42.638;23.376;2022-07-12T04:20:19;95096.13;;;12.60;62.10
72308;BME280;60257;42.638;23.376;2022-07-12T04:22:44;95100.31;;;12.70;62.31
72308;BME280;60257;42.638;23.376;2022-07-12T04:25:10;95094.03;;;12.85;61.71
72308;BME280;60257;42.638;23.376;2022-07-12T04:27:36;95099.53;;;12.85;61.96
72308;BME280;60257;42.638;23.376;2022-07-12T04:30:02;95105.09;;;12.88;61.93
72308;BME280;60257;42.638;23.376;2022-07-12T04:32:27;95104.28;;;13.03;62.14
72308;BME280;60257;42.638;23.376;2022-07-12T04:34:53;95099.09;;;13.14;61.77
72308;BME280;60257;42.638;23.376;2022-07-12T04:37:18;95100.13;;;13.25;62.32
72308;BME280;60257;42.638;23.376;2022-07-12T04:39:44;95103.13;;;13.36;61.91
72308;BME280;60257;42.638;23.376;2022-07-12T04:42:09;95113.66;;;13.50;61.05
72308;BME280;60257;42.638;23.376;2022-07-12T04:44:35;95106.38;;;13.57;61.76
72308;BME280;60257;42.638;23.376;2022-07-12T04:47:00;95111.75;;;13.69;61.32
72308;BME280;60257;42.638;23.376;2022-07-12T04:49:26;95104.63;;;13.84;60.48
72308;BME280;60257;42.638;23.376;2022-07-12T04:51:51;95107.47;;;13.87;60.52
72308;BME280;60257;42.638;23.376;2022-07-12T04:54:17;95108.97;;;14.04;60.23
72308;BME280;60257;42.638;23.376;2022-07-12T04:56:42;95109.47;;;14.29;58.74
72308;BME280;60257;42.638;23.376;2022-07-12T04:59:08;95115.28;;;14.43;58.65
72308;BME280;60257;42.638;23.376;2022-07-12T05:01:33;95108.97;;;14.62;57.91
72308;BME280;60257;42.638;23.376;2022-07-12T05:03:59;95113.47;;;14.70;57.54
72308;BME280;60257;42.638;23.376;2022-07-12T05:06:25;95115.19;;;14.78;57.70
72308;BME280;60257;42.638;23.376;2022-07-12T05:08:51;95119.16;;;14.81;57.27
72308;BME280;60257;42.638;23.376;2022-07-12T05:11:17;95112.94;;;14.84;57.35
72308;BME280;60257;42.638;23.376;2022-07-12T05:13:43;95108.31;;;14.91;57.10
72308;BME280;60257;42.638;23.376;2022-07-12T05:16:08;95111.97;;;14.95;57.65
72308;BME280;60257;42.638;23.376;2022-07-12T05:18:34;95115.97;;;15.01;57.08
72308;BME280;60257;42.638;23.376;2022-07-12T05:21:00;95109.50;;;15.13;57.20
72308;BME280;60257;42.638;23.376;2022-07-12T05:23:26;95110.63;;;15.35;57.54
72308;BME280;60257;42.638;23.376;2022-07-12T05:25:52;95104.91;;;15.43;57.42
72308;BME280;60257;42.638;23.376;2022-07-12T05:28:18;95116.84;;;15.51;58.09
72308;BME280;60257;42.638;23.376;2022-07-12T05:30:43;95118.53;;;15.59;56.60
72308;BME280;60257;42.638;23.376;2022-07-12T05:33:09;95120.72;;;15.73;57.21
72308;BME280;60257;42.638;23.376;2022-07-12T05:35:35;95120.84;;;15.83;56.82
72308;BME280;60257;42.638;23.376;2022-07-12T05:38:00;95122.50;;;15.88;56.25
72308;BME280;60257;42.638;23.376;2022-07-12T05:40:26;95124.66;;;16.01;57.28
72308;BME280;60257;42.638;23.376;2022-07-12T05:42:52;95126.81;;;16.15;55.62
72308;BME280;60257;42.638;23.376;2022-07-12T05:45:17;95116.59;;;16.16;54.12
72308;BME280;60257;42.638;23.376;2022-07-12T05:47:43;95116.72;;;16.26;53.52
72308;BME280;60257;42.638;23.376;2022-07-12T05:50:09;95110.16;;;16.38;52.13
72308;BME280;60257;42.638;23.376;2022-07-12T05:52:34;95113.00;;;16.12;53.68
72308;BME280;60257;42.638;23.376;2022-07-12T05:55:18;95107.88;;;16.14;54.22
72308;BME280;60257;42.638;23.376;2022-07-12T05:57:43;95112.00;;;16.27;53.71
72308;BME280;60257;42.638;23.376;2022-07-12T06:00:09;95116.13;;;16.43;54.87
72308;BME280;60257;42.638;23.376;2022-07-12T06:02:35;95103.94;;;16.44;54.01
72308;BME280;60257;42.638;23.376;2022-07-12T06:05:00;95113.50;;;16.54;52.82
72308;BME280;60257;42.638;23.376;2022-07-12T06:07:26;95109.69;;;16.62;52.07
72308;BME280;60257;42.638;23.376;2022-07-12T06:09:51;95114.88;;;16.67;52.67
72308;BME280;60257;42.638;23.376;2022-07-12T06:12:17;95107.31;;;17.01;50.53
72308;BME280;60257;42.638;23.376;2022-07-12T06:14:42;95117.56;;;17.01;49.37
72308;BME280;60257;42.638;23.376;2022-07-12T06:17:08;95107.75;;;17.03;49.69
72308;BME280;60257;42.638;23.376;2022-07-12T06:19:34;95108.88;;;16.95;50.72
72308;BME280;60257;42.638;23.376;2022-07-12T06:21:59;95104.88;;;16.93;50.46
72308;BME280;60257;42.638;23.376;2022-07-12T06:24:26;95101.41;;;17.43;48.25
72308;BME280;60257;42.638;23.376;2022-07-12T06:26:51;95094.94;;;17.25;48.87
72308;BME280;60257;42.638;23.376;2022-07-12T06:29:16;95098.91;;;16.87;50.59
72308;BME280;60257;42.638;23.376;2022-07-12T06:31:42;95104.84;;;16.89;50.16
72308;BME280;60257;42.638;23.376;2022-07-12T06:34:07;95109.25;;;16.94;50.70
72308;BME280;60257;42.638;23.376;2022-07-12T06:36:33;95103.00;;;17.00;50.07
72308;BME280;60257;42.638;23.376;2022-07-12T06:38:58;95109.41;;;17.11;51.98
72308;BME280;60257;42.638;23.376;2022-07-12T06:41:24;95102.81;;;17.23;50.13
72308;BME280;60257;42.638;23.376;2022-07-12T06:43:50;95101.38;;;17.40;48.72
72308;BME280;60257;42.638;23.376;2022-07-12T06:46:15;95102.50;;;17.35;50.37
72308;BME280;60257;42.638;23.376;2022-07-12T06:48:41;95103.81;;;17.48;51.26
72308;BME280;60257;42.638;23.376;2022-07-12T06:51:06;95096.94;;;17.75;49.04
72308;BME280;60257;42.638;23.376;2022-07-12T06:53:32;95096.00;;;18.19;47.90
72308;BME280;60257;42.638;23.376;2022-07-12T06:55:57;95088.78;;;17.97;44.58
72308;BME280;60257;42.638;23.376;2022-07-12T06:58:23;95093.00;;;17.77;46.64
72308;BME280;60257;42.638;23.376;2022-07-12T07:00:48;95089.41;;;17.72;45.80
72308;BME280;60257;42.638;23.376;2022-07-12T07:03:14;95091.41;;;17.79;45.48
72308;BME280;60257;42.638;23.376;2022-07-12T07:05:39;95094.53;;;17.74;45.97
72308;BME280;60257;42.638;23.376;2022-07-12T07:08:05;95087.53;;;17.84;45.87
72308;BME280;60257;42.638;23.376;2022-07-12T07:10:31;95093.94;;;17.98;46.09
72308;BME280;60257;42.638;23.376;2022-07-12T07:12:56;95082.16;;;18.19;44.97
72308;BME280;60257;42.638;23.376;2022-07-12T07:15:22;95077.06;;;18.25;45.09
72308;BME280;60257;42.638;23.376;2022-07-12T07:17:47;95081.47;;;18.40;44.63
72308;BME280;60257;42.638;23.376;2022-07-12T07:20:13;95083.44;;;18.43;44.29
72308;BME280;60257;42.638;23.376;2022-07-12T07:22:39;95089.41;;;18.45;44.81
72308;BME280;60257;42.638;23.376;2022-07-12T07:25:05;95097.66;;;18.38;44.87
72308;BME280;60257;42.638;23.376;2022-07-12T07:27:31;95092.09;;;18.31;44.67
72308;BME280;60257;42.638;23.376;2022-07-12T07:29:57;95091.34;;;18.37;45.19
72308;BME280;60257;42.638;23.376;2022-07-12T07:32:41;95087.53;;;18.70;43.43
72308;BME280;60257;42.638;23.376;2022-07-12T07:35:07;95088.69;;;18.58;43.91
72308;BME280;60257;42.638;23.376;2022-07-12T07:37:33;95084.31;;;18.54;43.58
72308;BME280;60257;42.638;23.376;2022-07-12T07:39:59;95083.56;;;18.60;43.40
72308;BME280;60257;42.638;23.376;2022-07-12T07:42:24;95087.91;;;18.69;44.31
72308;BME280;60257;42.638;23.376;2022-07-12T07:44:50;95076.09;;;18.79;44.06
72308;BME280;60257;42.638;23.376;2022-07-12T07:47:15;95078.50;;;19.12;41.88
72308;BME280;60257;42.638;23.376;2022-07-12T07:49:41;95076.53;;;19.13;42.09
72308;BME280;60257;42.638;23.376;2022-07-12T07:52:06;95078.13;;;19.28;42.10
72308;BME280;60257;42.638;23.376;2022-07-12T07:54:31;95075.38;;;19.45;40.94
72308;BME280;60257;42.638;23.376;2022-07-12T07:57:00;95072.97;;;19.90;38.74
72308;BME280;60257;42.638;23.376;2022-07-12T07:59:25;95067.06;;;19.60;40.07
72308;BME280;60257;42.638;23.376;2022-07-12T08:01:51;95073.81;;;19.48;39.47
72308;BME280;60257;42.638;23.376;2022-07-12T08:04:20;95076.16;;;19.39;39.47
72308;BME280;60257;42.638;23.376;2022-07-12T08:06:47;95082.47;;;19.11;40.58
72308;BME280;60257;42.638;23.376;2022-07-12T08:09:13;95078.50;;;18.98;40.44
72308;BME280;60257;42.638;23.376;2022-07-12T08:11:38;95076.16;;;19.35;39.52
72308;BME280;60257;42.638;23.376;2022-07-12T08:14:05;95064.28;;;19.10;39.45
72308;BME280;60257;42.638;23.376;2022-07-12T08:16:31;95068.25;;;19.34;38.68
72308;BME280;60257;42.638;23.376;2022-07-12T08:18:57;95070.66;;;19.50;39.07
72308;BME280;60257;42.638;23.376;2022-07-12T08:21:23;95067.47;;;19.48;38.22
72308;BME280;60257;42.638;23.376;2022-07-12T08:23:49;95063.91;;;19.61;36.80
72308;BME280;60257;42.638;23.376;2022-07-12T08:26:15;95064.66;;;19.94;36.45
72308;BME280;60257;42.638;23.376;2022-07-12T08:28:40;95056.69;;;20.03;37.10
72308;BME280;60257;42.638;23.376;2022-07-12T08:31:07;95055.53;;;19.89;38.09
72308;BME280;60257;42.638;23.376;2022-07-12T08:33:32;95058.69;;;19.95;36.94
72308;BME280;60257;42.638;23.376;2022-07-12T08:35:58;95051.56;;;19.90;38.05
72308;BME280;60257;42.638;23.376;2022-07-12T08:38:24;95055.06;;;20.09;37.55
72308;BME280;60257;42.638;23.376;2022-07-12T08:40:49;95050.69;;;20.25;36.94
72308;BME280;60257;42.638;23.376;2022-07-12T08:43:15;95052.56;;;20.53;37.16
72308;BME280;60257;42.638;23.376;2022-07-12T08:45:40;95049.84;;;20.28;36.07
72308;BME280;60257;42.638;23.376;2022-07-12T08:48:07;95051.50;;;20.15;36.24
72308;BME280;60257;42.638;23.376;2022-07-12T08:50:32;95046.38;;;20.10;36.18
72308;BME280;60257;42.638;23.376;2022-07-12T08:52:58;95043.53;;;20.24;36.05
72308;BME280;60257;42.638;23.376;2022-07-12T08:58:00;95035.63;;;20.19;36.92
72308;BME280;60257;42.638;23.376;2022-07-12T09:00:28;95037.09;;;20.56;36.13
72308;BME280;60257;42.638;23.376;2022-07-12T09:02:56;95040.97;;;20.69;35.31
72308;BME280;60257;42.638;23.376;2022-07-12T09:05:23;95041.03;;;20.58;35.84
72308;BME280;60257;42.638;23.376;2022-07-12T09:07:50;95040.13;;;20.79;35.31
72308;BME280;60257;42.638;23.376;2022-07-12T09:10:16;95042.47;;;20.84;34.62
72308;BME280;60257;42.638;23.376;2022-07-12T09:12:43;95039.38;;;20.75;35.33
72308;BME280;60257;42.638;23.376;2022-07-12T09:15:23;95035.41;;;20.76;35.02
72308;BME280;60257;42.638;23.376;2022-07-12T09:17:57;95032.56;;;20.83;33.86
72308;BME280;60257;42.638;23.376;2022-07-12T09:20:33;95031.25;;;21.05;32.26
72308;BME280;60257;42.638;23.376;2022-07-12T09:23:01;95023.19;;;21.22;33.11
72308;BME280;60257;42.638;23.376;2022-07-12T09:25:28;95035.72;;;21.85;31.96
72308;BME280;60257;42.638;23.376;2022-07-12T09:27:56;95034.94;;;21.43;30.91
72308;BME280;60257;42.638;23.376;2022-07-12T09:30:26;95030.44;;;21.01;32.05
72308;BME280;60257;42.638;23.376;2022-07-12T09:33:00;95030.81;;;20.41;34.12
72308;BME280;60257;42.638;23.376;2022-07-12T09:38:40;95020.56;;;20.31;34.02
72308;BME280;60257;42.638;23.376;2022-07-12T09:41:17;95021.59;;;20.62;32.83
72308;BME280;60257;42.638;23.376;2022-07-12T09:43:44;95022.97;;;20.95;31.87
72308;BME280;60257;42.638;23.376;2022-07-12T09:46:09;95023.19;;;21.22;31.52
72308;BME280;60257;42.638;23.376;2022-07-12T09:48:37;95026.03;;;21.11;31.97
72308;BME280;60257;42.638;23.376;2022-07-12T09:51:03;95026.75;;;21.22;32.03
72308;BME280;60257;42.638;23.376;2022-07-12T09:53:38;95021.78;;;20.96;31.90
72308;BME280;60257;42.638;23.376;2022-07-12T09:56:07;95023.47;;;20.79;32.04
72308;BME280;60257;42.638;23.376;2022-07-12T09:58:55;95024.28;;;20.72;33.27
72308;BME280;60257;42.638;23.376;2022-07-12T10:01:23;95025.97;;;20.59;33.20
72308;BME280;60257;42.638;23.376;2022-07-12T10:03:50;95017.63;;;20.59;33.38
72308;BME280;60257;42.638;23.376;2022-07-12T10:06:23;95018.41;;;20.67;33.36
72308;BME280;60257;42.638;23.376;2022-07-12T10:08:51;95018.53;;;21.04;32.10
72308;BME280;60257;42.638;23.376;2022-07-12T10:11:16;95016.91;;;21.14;32.55
72308;BME280;60257;42.638;23.376;2022-07-12T10:13:42;95015.47;;;20.88;33.00
72308;BME280;60257;42.638;23.376;2022-07-12T10:16:10;95018.41;;;20.63;33.47
72308;BME280;60257;42.638;23.376;2022-07-12T10:18:37;95009.25;;;20.70;31.86
72308;BME280;60257;42.638;23.376;2022-07-12T10:21:17;95019.03;;;20.89;30.92
72308;BME280;60257;42.638;23.376;2022-07-12T10:23:44;95017.88;;;20.86;30.88
72308;BME280;60257;42.638;23.376;2022-07-12T10:31:24;95009.63;;;20.75;31.67
72308;BME280;60257;42.638;23.376;2022-07-12T10:34:12;95008.59;;;21.10;32.20
72308;BME280;60257;42.638;23.376;2022-07-12T10:39:26;95006.53;;;21.22;30.40
72308;BME280;60257;42.638;23.376;2022-07-12T10:44:39;95001.41;;;21.13;30.14
72308;BME280;60257;42.638;23.376;2022-07-12T10:47:07;94985.53;;;21.17;30.14
72308;BME280;60257;42.638;23.376;2022-07-12T10:49:33;94985.59;;;21.51;31.43
72308;BME280;60257;42.638;23.376;2022-07-12T10:52:15;95001.66;;;21.33;29.82
72308;BME280;60257;42.638;23.376;2022-07-12T10:57:42;94991.31;;;21.78;31.13
72308;BME280;60257;42.638;23.376;2022-07-12T11:00:13;94992.84;;;21.82;30.71
72308;BME280;60257;42.638;23.376;2022-07-12T11:02:39;94988.59;;;21.71;30.80
72308;BME280;60257;42.638;23.376;2022-07-12T11:05:06;95003.81;;;21.59;31.26
72308;BME280;60257;42.638;23.376;2022-07-12T11:07:32;94993.25;;;21.43;31.51
72308;BME280;60257;42.638;23.376;2022-07-12T11:09:57;94982.69;;;21.65;29.73
72308;BME280;60257;42.638;23.376;2022-07-12T11:12:29;94986.09;;;21.80;30.43
72308;BME280;60257;42.638;23.376;2022-07-12T11:14:56;94998.22;;;22.03;30.59
72308;BME280;60257;42.638;23.376;2022-07-12T11:17:27;94997.31;;;22.10;30.07
72308;BME280;60257;42.638;23.376;2022-07-12T11:20:12;95000.34;;;21.85;29.75
72308;BME280;60257;42.638;23.376;2022-07-12T11:22:41;94998.00;;;21.84;30.88
72308;BME280;60257;42.638;23.376;2022-07-12T11:25:09;95004.25;;;21.95;30.97
72308;BME280;60257;42.638;23.376;2022-07-12T11:27:35;94991.25;;;21.81;30.48
72308;BME280;60257;42.638;23.376;2022-07-12T11:30:03;94978.41;;;21.57;31.30
72308;BME280;60257;42.638;23.376;2022-07-12T11:32:40;94995.78;;;21.68;31.69
72308;BME280;60257;42.638;23.376;2022-07-12T11:35:27;94997.03;;;22.01;31.11
72308;BME280;60257;42.638;23.376;2022-07-12T11:37:56;94984.84;;;21.88;32.32
72308;BME280;60257;42.638;23.376;2022-07-12T11:40:26;94993.06;;;22.02;31.66
72308;BME280;60257;42.638;23.376;2022-07-12T11:43:00;94993.91;;;21.95;31.75
72308;BME280;60257;42.638;23.376;2022-07-12T11:45:27;94980.72;;;22.03;31.20
72308;BME280;60257;42.638;23.376;2022-07-12T11:47:53;94980.69;;;22.07;31.74
72308;BME280;60257;42.638;23.376;2022-07-12T11:50:19;94983.56;;;21.96;30.85
72308;BME280;60257;42.638;23.376;2022-07-12T11:52:45;94981.19;;;21.94;31.57
72308;BME280;60257;42.638;23.376;2022-07-12T11:55:11;94977.22;;;21.99;32.17
72308;BME280;60257;42.638;23.376;2022-07-12T11:57:37;94970.78;;;22.36;31.27
72308;BME280;60257;42.638;23.376;2022-07-12T12:00:23;94975.63;;;22.59;30.84
72308;BME280;60257;42.638;23.376;2022-07-12T12:02:52;94973.47;;;22.43;31.31
72308;BME280;60257;42.638;23.376;2022-07-12T12:05:19;94960.56;;;22.56;31.13
72308;BME280;60257;42.638;23.376;2022-07-12T12:07:45;94983.34;;;22.17;32.18
72308;BME280;60257;42.638;23.376;2022-07-12T12:10:15;94964.66;;;21.80;31.81
72308;BME280;60257;42.638;23.376;2022-07-12T12:12:43;94964.81;;;22.03;31.26
72308;BME280;60257;42.638;23.376;2022-07-12T12:15:15;94966.19;;;22.22;31.60
72308;BME280;60257;42.638;23.376;2022-07-12T12:20:21;94952.41;;;22.12;31.23
72308;BME280;60257;42.638;23.376;2022-07-12T12:22:53;94974.47;;;22.26;30.17
72308;BME280;60257;42.638;23.376;2022-07-12T12:25:18;94961.19;;;22.07;30.95
72308;BME280;60257;42.638;23.376;2022-07-12T12:30:17;94956.84;;;22.36;31.26
72308;BME280;60257;42.638;23.376;2022-07-12T12:32:53;94957.50;;;22.17;32.00
72308;BME280;60257;42.638;23.376;2022-07-12T12:35:30;94967.16;;;22.09;32.76
72308;BME280;60257;42.638;23.376;2022-07-12T12:37:58;94953.25;;;22.05;33.53
72308;BME280;60257;42.638;23.376;2022-07-12T12:40:26;94965.84;;;22.17;32.71
72308;BME280;60257;42.638;23.376;2022-07-12T12:42:52;94961.31;;;21.96;31.88
72308;BME280;60257;42.638;23.376;2022-07-12T12:45:24;94952.00;;;22.13;32.27
72308;BME280;60257;42.638;23.376;2022-07-12T12:47:54;94947.38;;;22.30;33.70
72308;BME280;60257;42.638;23.376;2022-07-12T12:50:43;94965.00;;;22.80;32.61
72308;BME280;60257;42.638;23.376;2022-07-12T12:53:12;94956.31;;;22.44;31.31
72308;BME280;60257;42.638;23.376;2022-07-12T12:55:38;94956.13;;;22.59;32.36
72308;BME280;60257;42.638;23.376;2022-07-12T12:58:05;94951.91;;;22.77;30.34
72308;BME280;60257;42.638;23.376;2022-07-12T13:00:30;94948.47;;;22.66;30.00
72308;BME280;60257;42.638;23.376;2022-07-12T13:02:57;94951.38;;;22.86;30.07
72308;BME280;60257;42.638;23.376;2022-07-12T13:05:25;94953.06;;;22.80;31.01
72308;BME280;60257;42.638;23.376;2022-07-12T13:07:51;94940.00;;;23.00;30.44
72308;BME280;60257;42.638;23.376;2022-07-12T13:10:17;94942.91;;;22.93;31.61
72308;BME280;60257;42.638;23.376;2022-07-12T13:12:42;94939.59;;;23.02;31.75
72308;BME280;60257;42.638;23.376;2022-07-12T13:15:09;94952.31;;;23.03;30.67